sensor_id;sensor_type;location;lat;lon;timestamp;P1;durP1;ratioP1;P2;durP2;ratioP2
51686;SDS011;37774;52.192;4.584;2024-03-02T00:01:34;0.77;;;0.10;;
51686;SDS011;37774;52.192;4.584;2024-03-02T00:04:19;0.20;;;0.20;;
51686;SDS011;37774;52.192;4.584;2024-03-02T00:07:04;0.52;;;0.25;;
51686;SDS011;37774;52.192;4.584;2024-03-02T00:09:50;4.93;;;0.17;;
51686;SDS011;37774;52.192;4.584;2024-03-02T00:12:39;0.22;;;0.20;;
51686;SDS011;37774;52.192;4.584;2024-03-02T00:15:44;6.18;;;0.60;;
51686;SDS011;37774;52.192;4.584;2024-03-02T00:18:31;0.10;;;0.10;;
51686;SDS011;37774;52.192;4.584;2024-03-02T00:21:16;0.28;;;0.20;;
51686;SDS011;37774;52.192;4.584;2024-03-02T00:24:06;0.30;;;0.20;;
51686;SDS011;37774;52.192;4.584;2024-03-02T00:26:58;0.28;;;0.20;;
51686;SDS011;37774;52.192;4.584;2024-03-02T00:29:44;0.20;;;0.15;;
51686;SDS011;37774;52.192;4.584;2024-03-02T00:32:29;0.17;;;0.17;;
51686;SDS011;37774;52.192;4.584;2024-03-02T00:35:15;2.85;;;0.45;;
51686;SDS011;37774;52.192;4.584;2024-03-02T00:38:03;1.55;;;0.73;;
51686;SDS011;37774;52.192;4.584;2024-03-02T00:40:48;1.13;;;0.47;;
51686;SDS011;37774;52.192;4.584;2024-03-02T00:43:43;1.45;;;0.40;;
51686;SDS011;37774;52.192;4.584;2024-03-02T00:46:31;0.55;;;0.30;;
51686;SDS011;37774;52.192;4.584;2024-03-02T00:49:18;4.28;;;0.35;;
51686;SDS011;37774;52.192;4.584;2024-03-02T00:52:04;0.35;;;0.28;;
51686;SDS011;37774;52.192;4.584;2024-03-02T00:54:55;7.53;;;0.47;;
51686;SDS011;37774;52.192;4.584;2024-03-02T00:57:41;0.73;;;0.30;;
51686;SDS011;37774;52.192;4.584;2024-03-02T01:00:27;2.83;;;0.30;;
51686;SDS011;37774;52.192;4.584;2024-03-02T01:03:14;0.65;;;0.28;;
51686;SDS011;37774;52.192;4.584;2024-03-02T01:05:59;0.60;;;0.10;;
51686;SDS011;37774;52.192;4.584;2024-03-02T01:08:45;1.95;;;0.15;;
51686;SDS011;37774;52.192;4.584;2024-03-02T01:11:34;0.90;;;0.30;;
51686;SDS011;37774;52.192;4.584;2024-03-02T01:14:20;2.08;;;0.50;;
51686;SDS011;37774;52.192;4.584;2024-03-02T01:17:05;0.25;;;0.10;;
51686;SDS011;37774;52.192;4.584;2024-03-02T01:19:51;0.75;;;0.40;;
51686;SDS011;37774;52.192;4.584;2024-03-02T01:22:36;0.20;;;0.20;;
51686;SDS011;37774;52.192;4.584;2024-03-02T01:25:21;1.42;;;0.50;;
51686;SDS011;37774;52.192;4.584;2024-03-02T01:28:06;0.20;;;0.10;;
51686;SDS011;37774;52.192;4.584;2024-03-02T01:30:52;0.10;;;0.10;;
51686;SDS011;37774;52.192;4.584;2024-03-02T01:33:37;3.05;;;0.47;;
51686;SDS011;37774;52.192;4.584;2024-03-02T01:36:23;1.42;;;0.52;;
51686;SDS011;37774;52.192;4.584;2024-03-02T01:39:09;2.63;;;0.28;;
51686;SDS011;37774;52.192;4.584;2024-03-02T01:41:54;0.52;;;0.28;;
51686;SDS011;37774;52.192;4.584;2024-03-02T01:44:39;1.85;;;0.38;;
51686;SDS011;37774;52.192;4.584;2024-03-02T01:47:24;0.10;;;0.10;;
51686;SDS011;37774;52.192;4.584;2024-03-02T01:50:10;2.28;;;0.32;;
51686;SDS011;37774;52.192;4.584;2024-03-02T01:52:58;0.52;;;0.30;;
51686;SDS011;37774;52.192;4.584;2024-03-02T01:55:44;1.08;;;0.30;;
51686;SDS011;37774;52.192;4.584;2024-03-02T01:58:29;2.28;;;0.65;;
51686;SDS011;37774;52.192;4.584;2024-03-02T02:01:14;1.90;;;0.70;;
51686;SDS011;37774;52.192;4.584;2024-03-02T02:04:00;0.80;;;0.68;;
51686;SDS011;37774;52.192;4.584;2024-03-02T02:06:45;3.22;;;1.27;;
51686;SDS011;37774;52.192;4.584;2024-03-02T02:09:32;1.70;;;1.08;;
51686;SDS011;37774;52.192;4.584;2024-03-02T02:12:17;2.88;;;1.38;;
51686;SDS011;37774;52.192;4.584;2024-03-02T02:15:02;4.90;;;2.28;;
51686;SDS011;37774;52.192;4.584;2024-03-02T02:17:47;4.30;;;2.00;;
51686;SDS011;37774;52.192;4.584;2024-03-02T02:20:33;4.53;;;2.45;;
51686;SDS011;37774;52.192;4.584;2024-03-02T02:23:19;6.90;;;2.67;;
51686;SDS011;37774;52.192;4.584;2024-03-02T02:26:04;5.72;;;3.25;;
51686;SDS011;37774;52.192;4.584;2024-03-02T02:28:49;8.80;;;3.80;;
51686;SDS011;37774;52.192;4.584;2024-03-02T02:31:37;4.95;;;2.30;;
51686;SDS011;37774;52.192;4.584;2024-03-02T02:34:23;4.70;;;2.65;;
51686;SDS011;37774;52.192;4.584;2024-03-02T02:37:08;8.35;;;3.15;;
51686;SDS011;37774;52.192;4.584;2024-03-02T02:39:54;6.07;;;2.53;;
51686;SDS011;37774;52.192;4.584;2024-03-02T02:42:39;3.53;;;2.67;;
51686;SDS011;37774;52.192;4.584;2024-03-02T02:45:24;5.30;;;2.72;;
51686;SDS011;37774;52.192;4.584;2024-03-02T02:48:09;4.93;;;2.80;;
51686;SDS011;37774;52.192;4.584;2024-03-02T02:50:54;4.25;;;1.90;;
51686;SDS011;37774;52.192;4.584;2024-03-02T02:53:40;2.75;;;1.73;;
51686;SDS011;37774;52.192;4.584;2024-03-02T02:56:26;2.00;;;1.55;;
51686;SDS011;37774;52.192;4.584;2024-03-02T02:59:11;2.35;;;1.52;;
51686;SDS011;37774;52.192;4.584;2024-03-02T03:01:56;2.92;;;1.42;;
51686;SDS011;37774;52.192;4.584;2024-03-02T03:04:41;4.90;;;1.52;;
51686;SDS011;37774;52.192;4.584;2024-03-02T03:07:26;2.95;;;1.40;;
51686;SDS011;37774;52.192;4.584;2024-03-02T03:10:11;1.45;;;1.23;;
51686;SDS011;37774;52.192;4.584;2024-03-02T03:12:58;5.28;;;1.50;;
51686;SDS011;37774;52.192;4.584;2024-03-02T03:15:43;0.98;;;0.88;;
51686;SDS011;37774;52.192;4.584;2024-03-02T03:18:28;8.48;;;1.33;;
51686;SDS011;37774;52.192;4.584;2024-03-02T03:21:14;3.00;;;0.95;;
51686;SDS011;37774;52.192;4.584;2024-03-02T03:23:59;3.67;;;1.42;;
51686;SDS011;37774;52.192;4.584;2024-03-02T03:26:44;2.05;;;0.88;;
51686;SDS011;37774;52.192;4.584;2024-03-02T03:29:30;2.10;;;1.10;;
51686;SDS011;37774;52.192;4.584;2024-03-02T03:32:15;2.67;;;1.58;;
51686;SDS011;37774;52.192;4.584;2024-03-02T03:35:01;1.33;;;1.00;;
51686;SDS011;37774;52.192;4.584;2024-03-02T03:37:47;4.35;;;1.33;;
51686;SDS011;37774;52.192;4.584;2024-03-02T03:40:32;1.67;;;0.70;;
51686;SDS011;37774;52.192;4.584;2024-03-02T03:43:17;0.90;;;0.60;;
51686;SDS011;37774;52.192;4.584;2024-03-02T03:46:03;2.85;;;1.30;;
51686;SDS011;37774;52.192;4.584;2024-03-02T03:48:48;2.28;;;1.10;;
51686;SDS011;37774;52.192;4.584;2024-03-02T03:51:33;1.95;;;1.10;;
51686;SDS011;37774;52.192;4.584;2024-03-02T03:54:19;2.08;;;1.50;;
51686;SDS011;37774;52.192;4.584;2024-03-02T03:57:04;4.78;;;1.38;;
51686;SDS011;37774;52.192;4.584;2024-03-02T03:59:49;4.97;;;1.95;;
51686;SDS011;37774;52.192;4.584;2024-03-02T04:02:36;2.35;;;1.30;;
51686;SDS011;37774;52.192;4.584;2024-03-02T04:05:21;1.55;;;1.20;;
51686;SDS011;37774;52.192;4.584;2024-03-02T04:08:06;4.57;;;2.03;;
51686;SDS011;37774;52.192;4.584;2024-03-02T04:10:51;3.90;;;1.63;;
51686;SDS011;37774;52.192;4.584;2024-03-02T04:13:36;5.03;;;1.23;;
51686;SDS011;37774;52.192;4.584;2024-03-02T04:16:21;8.50;;;1.60;;
51686;SDS011;37774;52.192;4.584;2024-03-02T04:19:08;5.28;;;1.50;;
51686;SDS011;37774;52.192;4.584;2024-03-02T04:21:53;2.17;;;1.27;;
51686;SDS011;37774;52.192;4.584;2024-03-02T04:24:38;1.80;;;1.27;;
51686;SDS011;37774;52.192;4.584;2024-03-02T04:27:23;5.05;;;1.13;;
51686;SDS011;37774;52.192;4.584;2024-03-02T04:30:08;2.30;;;1.40;;
51686;SDS011;37774;52.192;4.584;2024-03-02T04:32:53;1.85;;;1.17;;
51686;SDS011;37774;52.192;4.584;2024-03-02T04:35:40;2.78;;;0.90;;
51686;SDS011;37774;52.192;4.584;2024-03-02T04:38:25;7.65;;;1.77;;
51686;SDS011;37774;52.192;4.584;2024-03-02T04:41:10;2.72;;;1.65;;
51686;SDS011;37774;52.192;4.584;2024-03-02T04:43:55;2.63;;;1.25;;
51686;SDS011;37774;52.192;4.584;2024-03-02T04:46:40;2.35;;;1.00;;
51686;SDS011;37774;52.192;4.584;2024-03-02T04:49:25;2.97;;;1.48;;
51686;SDS011;37774;52.192;4.584;2024-03-02T04:52:11;7.38;;;1.35;;
51686;SDS011;37774;52.192;4.584;2024-03-02T04:54:56;9.38;;;1.17;;
51686;SDS011;37774;52.192;4.584;2024-03-02T04:57:59;6.95;;;1.55;;
51686;SDS011;37774;52.192;4.584;2024-03-02T05:00:44;2.85;;;0.80;;
51686;SDS011;37774;52.192;4.584;2024-03-02T05:03:30;1.38;;;0.95;;
51686;SDS011;37774;52.192;4.584;2024-03-02T05:06:17;2.17;;;1.05;;
51686;SDS011;37774;52.192;4.584;2024-03-02T05:09:03;2.20;;;0.70;;
51686;SDS011;37774;52.192;4.584;2024-03-02T05:11:48;2.75;;;0.93;;
51686;SDS011;37774;52.192;4.584;2024-03-02T05:14:53;1.42;;;0.60;;
51686;SDS011;37774;52.192;4.584;2024-03-02T05:17:38;0.70;;;0.55;;
51686;SDS011;37774;52.192;4.584;2024-03-02T05:20:24;4.32;;;1.08;;
51686;SDS011;37774;52.192;4.584;2024-03-02T05:23:09;2.70;;;0.70;;
51686;SDS011;37774;52.192;4.584;2024-03-02T05:25:56;1.48;;;0.77;;
51686;SDS011;37774;52.192;4.584;2024-03-02T05:28:41;1.40;;;0.52;;
51686;SDS011;37774;52.192;4.584;2024-03-02T05:31:26;2.08;;;0.98;;
51686;SDS011;37774;52.192;4.584;2024-03-02T05:34:11;2.65;;;0.60;;
51686;SDS011;37774;52.192;4.584;2024-03-02T05:36:57;1.63;;;0.73;;
51686;SDS011;37774;52.192;4.584;2024-03-02T05:39:42;1.38;;;0.75;;
51686;SDS011;37774;52.192;4.584;2024-03-02T05:42:29;0.95;;;0.60;;
51686;SDS011;37774;52.192;4.584;2024-03-02T05:45:14;2.05;;;1.02;;
51686;SDS011;37774;52.192;4.584;2024-03-02T05:48:01;2.00;;;0.80;;
51686;SDS011;37774;52.192;4.584;2024-03-02T05:50:47;6.40;;;1.17;;
51686;SDS011;37774;52.192;4.584;2024-03-02T05:53:32;2.13;;;0.88;;
51686;SDS011;37774;52.192;4.584;2024-03-02T05:56:17;3.28;;;0.65;;
51686;SDS011;37774;52.192;4.584;2024-03-02T05:59:04;1.50;;;0.85;;
51686;SDS011;37774;52.192;4.584;2024-03-02T06:01:56;2.70;;;0.75;;
51686;SDS011;37774;52.192;4.584;2024-03-02T06:04:41;5.57;;;0.60;;
51686;SDS011;37774;52.192;4.584;2024-03-02T06:07:26;1.92;;;0.75;;
51686;SDS011;37774;52.192;4.584;2024-03-02T06:10:11;2.80;;;0.93;;
51686;SDS011;37774;52.192;4.584;2024-03-02T06:12:56;2.72;;;0.75;;
51686;SDS011;37774;52.192;4.584;2024-03-02T06:15:44;1.00;;;0.52;;
51686;SDS011;37774;52.192;4.584;2024-03-02T06:18:29;0.65;;;0.52;;
51686;SDS011;37774;52.192;4.584;2024-03-02T06:21:14;4.82;;;0.80;;
51686;SDS011;37774;52.192;4.584;2024-03-02T06:23:59;3.88;;;0.77;;
51686;SDS011;37774;52.192;4.584;2024-03-02T06:26:44;3.70;;;0.40;;
51686;SDS011;37774;52.192;4.584;2024-03-02T06:29:32;0.70;;;0.32;;
51686;SDS011;37774;52.192;4.584;2024-03-02T06:32:18;3.45;;;1.00;;
51686;SDS011;37774;52.192;4.584;2024-03-02T06:35:04;2.35;;;0.80;;
51686;SDS011;37774;52.192;4.584;2024-03-02T06:37:51;1.50;;;0.95;;
51686;SDS011;37774;52.192;4.584;2024-03-02T06:40:36;2.35;;;0.60;;
51686;SDS011;37774;52.192;4.584;2024-03-02T06:43:22;1.75;;;0.77;;
51686;SDS011;37774;52.192;4.584;2024-03-02T06:46:07;0.60;;;0.50;;
51686;SDS011;37774;52.192;4.584;2024-03-02T06:48:54;3.53;;;0.98;;
51686;SDS011;37774;52.192;4.584;2024-03-02T06:51:39;11.13;;;0.85;;
51686;SDS011;37774;52.192;4.584;2024-03-02T06:54:25;3.10;;;0.80;;
51686;SDS011;37774;52.192;4.584;2024-03-02T06:57:10;1.98;;;0.30;;
51686;SDS011;37774;52.192;4.584;2024-03-02T06:59:55;0.80;;;0.43;;
51686;SDS011;37774;52.192;4.584;2024-03-02T07:02:42;2.55;;;0.52;;
51686;SDS011;37774;52.192;4.584;2024-03-02T07:05:28;3.70;;;0.88;;
51686;SDS011;37774;52.192;4.584;2024-03-02T07:08:13;2.28;;;1.10;;
51686;SDS011;37774;52.192;4.584;2024-03-02T07:10:58;3.60;;;0.70;;
51686;SDS011;37774;52.192;4.584;2024-03-02T07:13:44;3.83;;;0.82;;
51686;SDS011;37774;52.192;4.584;2024-03-02T07:16:29;2.95;;;1.13;;
51686;SDS011;37774;52.192;4.584;2024-03-02T07:19:16;3.33;;;0.82;;
51686;SDS011;37774;52.192;4.584;2024-03-02T07:22:02;9.10;;;0.75;;
51686;SDS011;37774;52.192;4.584;2024-03-02T07:24:50;1.05;;;0.60;;
51686;SDS011;37774;52.192;4.584;2024-03-02T07:27:35;1.52;;;0.60;;
51686;SDS011;37774;52.192;4.584;2024-03-02T07:30:20;1.90;;;0.73;;
51686;SDS011;37774;52.192;4.584;2024-03-02T07:33:05;4.55;;;1.35;;
51686;SDS011;37774;52.192;4.584;2024-03-02T07:35:50;6.25;;;1.17;;
51686;SDS011;37774;52.192;4.584;2024-03-02T07:38:36;2.13;;;1.02;;
51686;SDS011;37774;52.192;4.584;2024-03-02T07:41:22;9.13;;;1.02;;
51686;SDS011;37774;52.192;4.584;2024-03-02T07:44:07;8.35;;;1.13;;
51686;SDS011;37774;52.192;4.584;2024-03-02T07:46:52;1.30;;;0.82;;
51686;SDS011;37774;52.192;4.584;2024-03-02T07:49:37;2.42;;;0.80;;
51686;SDS011;37774;52.192;4.584;2024-03-02T07:52:22;6.90;;;0.88;;
51686;SDS011;37774;52.192;4.584;2024-03-02T07:55:09;2.15;;;0.80;;
51686;SDS011;37774;52.192;4.584;2024-03-02T07:57:54;1.52;;;0.70;;
51686;SDS011;37774;52.192;4.584;2024-03-02T08:00:40;2.00;;;0.98;;
51686;SDS011;37774;52.192;4.584;2024-03-02T08:03:25;2.42;;;0.80;;
51686;SDS011;37774;52.192;4.584;2024-03-02T08:06:11;4.70;;;0.88;;
51686;SDS011;37774;52.192;4.584;2024-03-02T08:08:56;3.05;;;0.60;;
51686;SDS011;37774;52.192;4.584;2024-03-02T08:11:43;6.72;;;1.60;;
51686;SDS011;37774;52.192;4.584;2024-03-02T08:14:28;3.40;;;0.65;;
51686;SDS011;37774;52.192;4.584;2024-03-02T08:17:13;1.70;;;0.80;;
51686;SDS011;37774;52.192;4.584;2024-03-02T08:19:58;5.50;;;0.70;;
51686;SDS011;37774;52.192;4.584;2024-03-02T08:22:44;2.00;;;1.02;;
51686;SDS011;37774;52.192;4.584;2024-03-02T08:25:31;2.67;;;0.90;;
51686;SDS011;37774;52.192;4.584;2024-03-02T08:28:17;4.68;;;0.82;;
51686;SDS011;37774;52.192;4.584;2024-03-02T08:31:03;4.22;;;0.77;;
51686;SDS011;37774;52.192;4.584;2024-03-02T08:33:48;1.25;;;0.60;;
51686;SDS011;37774;52.192;4.584;2024-03-02T08:36:33;6.28;;;0.98;;
51686;SDS011;37774;52.192;4.584;2024-03-02T08:39:19;6.05;;;1.23;;
51686;SDS011;37774;52.192;4.584;2024-03-02T08:42:05;3.92;;;1.25;;
51686;SDS011;37774;52.192;4.584;2024-03-02T08:44:52;12.40;;;1.60;;
51686;SDS011;37774;52.192;4.584;2024-03-02T08:47:37;2.63;;;0.73;;
51686;SDS011;37774;52.192;4.584;2024-03-02T08:50:22;3.97;;;1.08;;
51686;SDS011;37774;52.192;4.584;2024-03-02T08:53:07;2.92;;;1.10;;
51686;SDS011;37774;52.192;4.584;2024-03-02T08:55:52;2.45;;;1.33;;
51686;SDS011;37774;52.192;4.584;2024-03-02T08:58:38;7.28;;;0.77;;
51686;SDS011;37774;52.192;4.584;2024-03-02T09:01:25;3.22;;;0.55;;
51686;SDS011;37774;52.192;4.584;2024-03-02T09:04:10;5.53;;;0.70;;
51686;SDS011;37774;52.192;4.584;2024-03-02T09:06:55;13.85;;;1.15;;
51686;SDS011;37774;52.192;4.584;2024-03-02T09:09:41;4.30;;;1.25;;
51686;SDS011;37774;52.192;4.584;2024-03-02T09:12:26;5.07;;;0.82;;
51686;SDS011;37774;52.192;4.584;2024-03-02T09:15:11;1.88;;;0.55;;
51686;SDS011;37774;52.192;4.584;2024-03-02T09:17:57;1.13;;;0.63;;
51686;SDS011;37774;52.192;4.584;2024-03-02T09:20:42;8.20;;;0.98;;
51686;SDS011;37774;52.192;4.584;2024-03-02T09:23:27;4.82;;;1.08;;
51686;SDS011;37774;52.192;4.584;2024-03-02T09:26:13;6.85;;;2.10;;
51686;SDS011;37774;52.192;4.584;2024-03-02T09:28:58;9.18;;;0.93;;
51686;SDS011;37774;52.192;4.584;2024-03-02T09:31:43;5.88;;;0.85;;
51686;SDS011;37774;52.192;4.584;2024-03-02T09:34:29;4.47;;;0.63;;
51686;SDS011;37774;52.192;4.584;2024-03-02T09:37:14;9.15;;;1.27;;
51686;SDS011;37774;52.192;4.584;2024-03-02T09:40:00;3.60;;;0.90;;
51686;SDS011;37774;52.192;4.584;2024-03-02T09:42:45;8.50;;;0.98;;
51686;SDS011;37774;52.192;4.584;2024-03-02T09:45:35;6.63;;;0.57;;
51686;SDS011;37774;52.192;4.584;2024-03-02T09:48:20;6.25;;;0.88;;
51686;SDS011;37774;52.192;4.584;2024-03-02T09:51:07;1.35;;;0.45;;
51686;SDS011;37774;52.192;4.584;2024-03-02T09:53:52;1.48;;;0.63;;
51686;SDS011;37774;52.192;4.584;2024-03-02T09:56:37;6.78;;;0.80;;
51686;SDS011;37774;52.192;4.584;2024-03-02T09:59:22;3.50;;;0.65;;
51686;SDS011;37774;52.192;4.584;2024-03-02T10:02:07;7.97;;;1.58;;
51686;SDS011;37774;52.192;4.584;2024-03-02T10:04:53;8.00;;;0.80;;
51686;SDS011;37774;52.192;4.584;2024-03-02T10:07:39;5.32;;;0.95;;
51686;SDS011;37774;52.192;4.584;2024-03-02T10:10:24;3.63;;;0.80;;
51686;SDS011;37774;52.192;4.584;2024-03-02T10:13:18;1.40;;;0.50;;
51686;SDS011;37774;52.192;4.584;2024-03-02T10:16:08;2.97;;;0.80;;
51686;SDS011;37774;52.192;4.584;2024-03-02T10:18:56;3.45;;;0.75;;
51686;SDS011;37774;52.192;4.584;2024-03-02T10:21:41;4.43;;;0.65;;
51686;SDS011;37774;52.192;4.584;2024-03-02T10:24:28;2.15;;;0.70;;
51686;SDS011;37774;52.192;4.584;2024-03-02T10:27:23;3.53;;;0.82;;
51686;SDS011;37774;52.192;4.584;2024-03-02T10:30:08;5.25;;;0.77;;
51686;SDS011;37774;52.192;4.584;2024-03-02T10:32:55;4.95;;;0.80;;
51686;SDS011;37774;52.192;4.584;2024-03-02T10:35:40;1.30;;;0.60;;
51686;SDS011;37774;52.192;4.584;2024-03-02T10:38:25;3.72;;;0.93;;
51686;SDS011;37774;52.192;4.584;2024-03-02T10:41:12;5.75;;;0.82;;
51686;SDS011;37774;52.192;4.584;2024-03-02T10:44:01;2.10;;;0.63;;
51686;SDS011;37774;52.192;4.584;2024-03-02T10:46:46;3.92;;;0.82;;
51686;SDS011;37774;52.192;4.584;2024-03-02T10:49:32;4.30;;;0.80;;
51686;SDS011;37774;52.192;4.584;2024-03-02T10:52:17;2.97;;;0.68;;
51686;SDS011;37774;52.192;4.584;2024-03-02T10:55:02;7.03;;;1.00;;
51686;SDS011;37774;52.192;4.584;2024-03-02T10:57:51;8.23;;;0.73;;
51686;SDS011;37774;52.192;4.584;2024-03-02T11:00:37;3.90;;;0.82;;
51686;SDS011;37774;52.192;4.584;2024-03-02T11:03:23;6.85;;;0.60;;
51686;SDS011;37774;52.192;4.584;2024-03-02T11:06:09;2.83;;;0.63;;
51686;SDS011;37774;52.192;4.584;2024-03-02T11:08:55;3.67;;;0.70;;
51686;SDS011;37774;52.192;4.584;2024-03-02T11:11:43;2.10;;;0.75;;
51686;SDS011;37774;52.192;4.584;2024-03-02T11:14:30;3.92;;;0.70;;
51686;SDS011;37774;52.192;4.584;2024-03-02T11:17:16;4.85;;;0.77;;
51686;SDS011;37774;52.192;4.584;2024-03-02T11:20:01;4.68;;;0.55;;
51686;SDS011;37774;52.192;4.584;2024-03-02T11:22:48;6.00;;;1.00;;
51686;SDS011;37774;52.192;4.584;2024-03-02T11:25:33;3.88;;;1.10;;
51686;SDS011;37774;52.192;4.584;2024-03-02T11:28:18;4.63;;;1.25;;
51686;SDS011;37774;52.192;4.584;2024-03-02T11:31:20;3.30;;;1.00;;
51686;SDS011;37774;52.192;4.584;2024-03-02T11:34:16;8.80;;;1.15;;
51686;SDS011;37774;52.192;4.584;2024-03-02T11:37:02;4.60;;;0.80;;
51686;SDS011;37774;52.192;4.584;2024-03-02T11:39:49;10.02;;;1.63;;
51686;SDS011;37774;52.192;4.584;2024-03-02T11:42:34;8.05;;;0.65;;
51686;SDS011;37774;52.192;4.584;2024-03-02T11:45:22;10.63;;;1.67;;
51686;SDS011;37774;52.192;4.584;2024-03-02T11:48:08;7.15;;;0.93;;
51686;SDS011;37774;52.192;4.584;2024-03-02T11:50:57;5.72;;;0.77;;
51686;SDS011;37774;52.192;4.584;2024-03-02T11:53:43;9.57;;;1.20;;
51686;SDS011;37774;52.192;4.584;2024-03-02T11:56:30;8.82;;;1.15;;
51686;SDS011;37774;52.192;4.584;2024-03-02T11:59:16;4.37;;;1.10;;
51686;SDS011;37774;52.192;4.584;2024-03-02T12:02:01;11.60;;;0.90;;
51686;SDS011;37774;52.192;4.584;2024-03-02T12:04:49;3.47;;;0.60;;
51686;SDS011;37774;52.192;4.584;2024-03-02T12:07:34;2.90;;;0.55;;
51686;SDS011;37774;52.192;4.584;2024-03-02T12:10:19;2.30;;;0.45;;
51686;SDS011;37774;52.192;4.584;2024-03-02T12:13:05;11.88;;;0.85;;
51686;SDS011;37774;52.192;4.584;2024-03-02T12:15:52;12.43;;;1.00;;
51686;SDS011;37774;52.192;4.584;2024-03-02T12:18:38;6.68;;;0.77;;
51686;SDS011;37774;52.192;4.584;2024-03-02T12:21:26;1.17;;;0.80;;
51686;SDS011;37774;52.192;4.584;2024-03-02T12:24:11;3.35;;;1.05;;
51686;SDS011;37774;52.192;4.584;2024-03-02T12:26:56;4.95;;;0.57;;
51686;SDS011;37774;52.192;4.584;2024-03-02T12:29:41;5.20;;;0.43;;
51686;SDS011;37774;52.192;4.584;2024-03-02T12:32:27;4.20;;;0.55;;
51686;SDS011;37774;52.192;4.584;2024-03-02T12:35:12;1.85;;;0.60;;
51686;SDS011;37774;52.192;4.584;2024-03-02T12:38:00;6.45;;;1.55;;
51686;SDS011;37774;52.192;4.584;2024-03-02T12:40:47;3.78;;;0.77;;
51686;SDS011;37774;52.192;4.584;2024-03-02T12:43:32;6.57;;;1.70;;
51686;SDS011;37774;52.192;4.584;2024-03-02T12:46:17;4.22;;;1.58;;
51686;SDS011;37774;52.192;4.584;2024-03-02T12:49:07;15.50;;;1.10;;
51686;SDS011;37774;52.192;4.584;2024-03-02T12:51:53;9.10;;;1.55;;
51686;SDS011;37774;52.192;4.584;2024-03-02T12:54:39;3.28;;;0.98;;
51686;SDS011;37774;52.192;4.584;2024-03-02T12:57:25;5.60;;;0.70;;
51686;SDS011;37774;52.192;4.584;2024-03-02T13:00:10;3.30;;;0.82;;
51686;SDS011;37774;52.192;4.584;2024-03-02T13:02:56;5.80;;;0.95;;
51686;SDS011;37774;52.192;4.584;2024-03-02T13:05:48;5.57;;;0.60;;
51686;SDS011;37774;52.192;4.584;2024-03-02T13:08:33;1.20;;;0.70;;
51686;SDS011;37774;52.192;4.584;2024-03-02T13:11:20;5.47;;;0.75;;
51686;SDS011;37774;52.192;4.584;2024-03-02T13:14:06;6.30;;;1.10;;
51686;SDS011;37774;52.192;4.584;2024-03-02T13:16:51;9.07;;;0.93;;
51686;SDS011;37774;52.192;4.584;2024-03-02T13:19:36;6.72;;;1.17;;
51686;SDS011;37774;52.192;4.584;2024-03-02T13:22:22;3.22;;;1.02;;
51686;SDS011;37774;52.192;4.584;2024-03-02T13:25:07;5.05;;;1.17;;
51686;SDS011;37774;52.192;4.584;2024-03-02T13:27:55;4.30;;;1.20;;
51686;SDS011;37774;52.192;4.584;2024-03-02T13:30:41;14.57;;;1.77;;
51686;SDS011;37774;52.192;4.584;2024-03-02T13:33:26;4.78;;;1.10;;
51686;SDS011;37774;52.192;4.584;2024-03-02T13:36:11;6.82;;;0.90;;
51686;SDS011;37774;52.192;4.584;2024-03-02T13:38:56;5.25;;;0.60;;
51686;SDS011;37774;52.192;4.584;2024-03-02T13:41:42;3.80;;;0.77;;
51686;SDS011;37774;52.192;4.584;2024-03-02T13:44:37;4.63;;;0.88;;
51686;SDS011;37774;52.192;4.584;2024-03-02T13:47:22;7.70;;;0.82;;
51686;SDS011;37774;52.192;4.584;2024-03-02T13:50:07;5.47;;;0.77;;
51686;SDS011;37774;52.192;4.584;2024-03-02T13:52:53;7.85;;;0.82;;
51686;SDS011;37774;52.192;4.584;2024-03-02T13:55:38;5.30;;;0.70;;
51686;SDS011;37774;52.192;4.584;2024-03-02T13:58:23;3.97;;;0.60;;
51686;SDS011;37774;52.192;4.584;2024-03-02T14:01:10;3.20;;;0.35;;
51686;SDS011;37774;52.192;4.584;2024-03-02T14:03:55;6.65;;;1.27;;
51686;SDS011;37774;52.192;4.584;2024-03-02T14:06:40;1.80;;;0.93;;
51686;SDS011;37774;52.192;4.584;2024-03-02T14:09:27;4.20;;;0.50;;
51686;SDS011;37774;52.192;4.584;2024-03-02T14:12:12;3.80;;;0.60;;
51686;SDS011;37774;52.192;4.584;2024-03-02T14:14:58;3.72;;;0.75;;
51686;SDS011;37774;52.192;4.584;2024-03-02T14:17:47;7.00;;;0.73;;
51686;SDS011;37774;52.192;4.584;2024-03-02T14:20:32;2.30;;;0.50;;
51686;SDS011;37774;52.192;4.584;2024-03-02T14:23:17;3.45;;;0.60;;
51686;SDS011;37774;52.192;4.584;2024-03-02T14:26:03;6.47;;;0.68;;
51686;SDS011;37774;52.192;4.584;2024-03-02T14:28:48;2.58;;;0.47;;
51686;SDS011;37774;52.192;4.584;2024-03-02T14:31:33;5.38;;;0.50;;
51686;SDS011;37774;52.192;4.584;2024-03-02T14:34:19;6.03;;;0.43;;
51686;SDS011;37774;52.192;4.584;2024-03-02T14:37:06;6.88;;;0.90;;
51686;SDS011;37774;52.192;4.584;2024-03-02T14:39:51;3.28;;;0.75;;
51686;SDS011;37774;52.192;4.584;2024-03-02T14:42:36;4.28;;;0.55;;
51686;SDS011;37774;52.192;4.584;2024-03-02T14:45:21;12.80;;;0.68;;
51686;SDS011;37774;52.192;4.584;2024-03-02T14:48:07;3.90;;;0.60;;
51686;SDS011;37774;52.192;4.584;2024-03-02T14:50:53;6.22;;;0.88;;
51686;SDS011;37774;52.192;4.584;2024-03-02T14:53:38;5.90;;;0.65;;
51686;SDS011;37774;52.192;4.584;2024-03-02T14:56:23;3.20;;;0.45;;
51686;SDS011;37774;52.192;4.584;2024-03-02T14:59:09;2.35;;;0.70;;
51686;SDS011;37774;52.192;4.584;2024-03-02T15:01:54;1.48;;;0.40;;
51686;SDS011;37774;52.192;4.584;2024-03-02T15:04:39;9.23;;;1.17;;
51686;SDS011;37774;52.192;4.584;2024-03-02T15:07:26;7.18;;;1.17;;
51686;SDS011;37774;52.192;4.584;2024-03-02T15:10:11;3.92;;;0.52;;
51686;SDS011;37774;52.192;4.584;2024-03-02T15:12:56;3.08;;;0.70;;
51686;SDS011;37774;52.192;4.584;2024-03-02T15:15:41;2.10;;;0.50;;
51686;SDS011;37774;52.192;4.584;2024-03-02T15:18:26;4.97;;;0.65;;
51686;SDS011;37774;52.192;4.584;2024-03-02T15:21:12;0.93;;;0.43;;
51686;SDS011;37774;52.192;4.584;2024-03-02T15:23:58;3.47;;;0.52;;
51686;SDS011;37774;52.192;4.584;2024-03-02T15:26:43;6.47;;;0.97;;
51686;SDS011;37774;52.192;4.584;2024-03-02T15:29:29;6.53;;;0.93;;
51686;SDS011;37774;52.192;4.584;2024-03-02T15:32:15;4.90;;;0.80;;
51686;SDS011;37774;52.192;4.584;2024-03-02T15:35:00;4.30;;;0.88;;
51686;SDS011;37774;52.192;4.584;2024-03-02T15:37:45;8.38;;;0.93;;
51686;SDS011;37774;52.192;4.584;2024-03-02T15:40:31;5.53;;;0.98;;
51686;SDS011;37774;52.192;4.584;2024-03-02T15:43:16;7.43;;;0.83;;
51686;SDS011;37774;52.192;4.584;2024-03-02T15:46:01;6.75;;;1.00;;
51686;SDS011;37774;52.192;4.584;2024-03-02T15:48:47;2.38;;;0.50;;
51686;SDS011;37774;52.192;4.584;2024-03-02T15:51:32;2.20;;;0.80;;
51686;SDS011;37774;52.192;4.584;2024-03-02T15:54:20;4.82;;;0.82;;
51686;SDS011;37774;52.192;4.584;2024-03-02T15:57:06;3.13;;;1.08;;
51686;SDS011;37774;52.192;4.584;2024-03-02T15:59:51;3.00;;;1.05;;
51686;SDS011;37774;52.192;4.584;2024-03-02T16:02:36;3.30;;;1.15;;
51686;SDS011;37774;52.192;4.584;2024-03-02T16:05:21;1.48;;;0.98;;
51686;SDS011;37774;52.192;4.584;2024-03-02T16:08:06;8.30;;;1.10;;
51686;SDS011;37774;52.192;4.584;2024-03-02T16:10:52;3.92;;;0.90;;
51686;SDS011;37774;52.192;4.584;2024-03-02T16:13:38;2.25;;;1.13;;
51686;SDS011;37774;52.192;4.584;2024-03-02T16:16:23;2.72;;;0.90;;
51686;SDS011;37774;52.192;4.584;2024-03-02T16:19:08;8.73;;;1.10;;
51686;SDS011;37774;52.192;4.584;2024-03-02T16:21:53;4.75;;;0.52;;
51686;SDS011;37774;52.192;4.584;2024-03-02T16:24:38;7.78;;;0.98;;
51686;SDS011;37774;52.192;4.584;2024-03-02T16:27:23;8.63;;;0.95;;
51686;SDS011;37774;52.192;4.584;2024-03-02T16:30:12;3.38;;;0.80;;
51686;SDS011;37774;52.192;4.584;2024-03-02T16:32:57;4.93;;;0.80;;
51686;SDS011;37774;52.192;4.584;2024-03-02T16:35:43;3.53;;;0.77;;
51686;SDS011;37774;52.192;4.584;2024-03-02T16:38:31;2.88;;;0.70;;
51686;SDS011;37774;52.192;4.584;2024-03-02T16:41:16;2.92;;;0.95;;